sensor_id;sensor_type;location;lat;lon;timestamp;temperature;humidity
20833;DHT22;56075;51.264;7.150;2023-04-25T00:06:38;6.70;99.90
20833;DHT22;56075;51.264;7.150;2023-04-25T00:09:10;6.80;99.90
20833;DHT22;56075;51.264;7.150;2023-04-25T00:21:47;7.10;99.90
20833;DHT22;56075;51.264;7.150;2023-04-25T00:31:53;7.00;99.90
20833;DHT22;56075;51.264;7.150;2023-04-25T00:39:28;6.90;99.90
20833;DHT22;56075;51.264;7.150;2023-04-25T00:47:03;6.80;99.90
20833;DHT22;56075;51.264;7.150;2023-04-25T00:49:35;7.00;99.90
20833;DHT22;56075;51.264;7.150;2023-04-25T00:54:38;7.00;99.90
20833;DHT22;56075;51.264;7.150;2023-04-25T00:59:45;7.20;99.90
20833;DHT22;56075;51.264;7.150;2023-04-25T01:07:20;7.00;99.90
20833;DHT22;56075;51.264;7.150;2023-04-25T01:09:53;7.10;99.90
20833;DHT22;56075;51.264;7.150;2023-04-25T01:12:24;7.20;99.90
20833;DHT22;56075;51.264;7.150;2023-04-25T01:17:27;7.30;99.90
20833;DHT22;56075;51.264;7.150;2023-04-25T01:30:08;7.20;99.90
20833;DHT22;56075;51.264;7.150;2023-04-25T01:35:12;7.10;99.90
20833;DHT22;56075;51.264;7.150;2023-04-25T01:45:21;7.10;99.90
20833;DHT22;56075;51.264;7.150;2023-04-25T01:47:53;7.00;99.90
20833;DHT22;56075;51.264;7.150;2023-04-25T01:50:24;7.20;99.90
20833;DHT22;56075;51.264;7.150;2023-04-25T01:52:55;7.10;99.90
20833;DHT22;56075;51.264;7.150;2023-04-25T01:55:27;6.80;99.90
20833;DHT22;56075;51.264;7.150;2023-04-25T02:14:23;7.00;99.90
20833;DHT22;56075;51.264;7.150;2023-04-25T02:17:08;6.90;99.90
20833;DHT22;56075;51.264;7.150;2023-04-25T02:19:40;7.10;99.90
20833;DHT22;56075;51.264;7.150;2023-04-25T02:22:12;7.00;99.90
20833;DHT22;56075;51.264;7.150;2023-04-25T02:29:46;6.90;99.90
20833;DHT22;56075;51.264;7.150;2023-04-25T02:34:49;6.80;99.90
20833;DHT22;56075;51.264;7.150;2023-04-25T02:42:23;6.70;99.90
20833;DHT22;56075;51.264;7.150;2023-04-25T02:52:29;6.80;99.90
20833;DHT22;56075;51.264;7.150;2023-04-25T02:57:42;6.70;99.90
20833;DHT22;56075;51.264;7.150;2023-04-25T03:00:16;6.80;99.90
20833;DHT22;56075;51.264;7.150;2023-04-25T03:07:51;6.70;99.90
20833;DHT22;56075;51.264;7.150;2023-04-25T03:15:25;6.90;99.90
20833;DHT22;56075;51.264;7.150;2023-04-25T03:17:57;7.10;99.90
20833;DHT22;56075;51.264;7.150;2023-04-25T03:23:00;7.00;99.90
20833;DHT22;56075;51.264;7.150;2023-04-25T03:28:04;6.80;99.90
20833;DHT22;56075;51.264;7.150;2023-04-25T03:30:36;6.60;99.90
20833;DHT22;56075;51.264;7.150;2023-04-25T03:35:39;6.90;99.90
20833;DHT22;56075;51.264;7.150;2023-04-25T03:38:10;6.60;99.90
20833;DHT22;56075;51.264;7.150;2023-04-25T03:43:25;6.80;99.90
20833;DHT22;56075;51.264;7.150;2023-04-25T03:51:06;6.90;99.90
20833;DHT22;56075;51.264;7.150;2023-04-25T03:53:40;6.70;99.90
20833;DHT22;56075;51.264;7.150;2023-04-25T03:58:56;6.80;99.90
20833;DHT22;56075;51.264;7.150;2023-04-25T04:01:30;6.90;99.90
20833;DHT22;56075;51.264;7.150;2023-04-25T04:09:15;6.90;99.90
20833;DHT22;56075;51.264;7.150;2023-04-25T04:16:53;6.60;99.90
20833;DHT22;56075;51.264;7.150;2023-04-25T04:22:14;6.60;99.90
20833;DHT22;56075;51.264;7.150;2023-04-25T04:24:46;6.60;99.90
20833;DHT22;56075;51.264;7.150;2023-04-25T04:38:17;6.80;99.90
20833;DHT22;56075;51.264;7.150;2023-04-25T04:40:49;6.80;99.90
20833;DHT22;56075;51.264;7.150;2023-04-25T04:43:29;6.80;99.90
20833;DHT22;56075;51.264;7.150;2023-04-25T04:54:38;6.80;99.90
20833;DHT22;56075;51.264;7.150;2023-04-25T04:57:23;6.90;99.90
20833;DHT22;56075;51.264;7.150;2023-04-25T05:20:06;6.70;99.90
20833;DHT22;56075;51.264;7.150;2023-04-25T05:23:16;6.60;99.90
20833;DHT22;56075;51.264;7.150;2023-04-25T05:34:18;6.80;99.90
20833;DHT22;56075;51.264;7.150;2023-04-25T05:42:56;6.60;99.90
20833;DHT22;56075;51.264;7.150;2023-04-25T05:45:48;6.70;99.90
20833;DHT22;56075;51.264;7.150;2023-04-25T05:59:18;6.70;99.90
20833;DHT22;56075;51.264;7.150;2023-04-25T06:04:24;6.70;99.90
20833;DHT22;56075;51.264;7.150;2023-04-25T06:06:55;6.80;99.90
20833;DHT22;56075;51.264;7.150;2023-04-25T06:09:27;6.90;99.90
20833;DHT22;56075;51.264;7.150;2023-04-25T06:19:39;6.80;99.90
20833;DHT22;56075;51.264;7.150;2023-04-25T06:24:44;7.00;99.90
20833;DHT22;56075;51.264;7.150;2023-04-25T06:27:16;7.30;99.90
20833;DHT22;56075;51.264;7.150;2023-04-25T06:32:19;7.40;99.90
20833;DHT22;56075;51.264;7.150;2023-04-25T06:34:51;7.60;99.90
20833;DHT22;56075;51.264;7.150;2023-04-25T06:42:27;7.50;99.90
20833;DHT22;56075;51.264;7.150;2023-04-25T06:47:35;7.60;99.90
20833;DHT22;56075;51.264;7.150;2023-04-25T06:50:07;7.60;99.90
20833;DHT22;56075;51.264;7.150;2023-04-25T06:58:02;7.80;99.90
20833;DHT22;56075;51.264;7.150;2023-04-25T07:08:43;8.00;99.90
20833;DHT22;56075;51.264;7.150;2023-04-25T07:18:51;8.00;99.90
20833;DHT22;56075;51.264;7.150;2023-04-25T07:26:33;8.40;99.90
20833;DHT22;56075;51.264;7.150;2023-04-25T07:31:54;8.60;99.90
20833;DHT22;56075;51.264;7.150;2023-04-25T07:36:58;8.60;99.90
20833;DHT22;56075;51.264;7.150;2023-04-25T07:42:06;8.40;99.90
20833;DHT22;56075;51.264;7.150;2023-04-25T07:52:19;8.10;99.90
20833;DHT22;56075;51.264;7.150;2023-04-25T07:57:37;8.30;99.90
20833;DHT22;56075;51.264;7.150;2023-04-25T08:10:28;8.80;99.90
20833;DHT22;56075;51.264;7.150;2023-04-25T08:12:59;8.50;99.90
20833;DHT22;56075;51.264;7.150;2023-04-25T08:15:35;8.80;99.90
20833;DHT22;56075;51.264;7.150;2023-04-25T08:18:06;8.70;99.90
20833;DHT22;56075;51.264;7.150;2023-04-25T08:25:55;9.10;99.90
20833;DHT22;56075;51.264;7.150;2023-04-25T08:28:31;9.10;99.90
20833;DHT22;56075;51.264;7.150;2023-04-25T08:31:04;9.00;99.90
20833;DHT22;56075;51.264;7.150;2023-04-25T08:36:42;9.40;99.90
20833;DHT22;56075;51.264;7.150;2023-04-25T08:39:27;9.30;99.90
20833;DHT22;56075;51.264;7.150;2023-04-25T08:44:54;9.30;99.90
20833;DHT22;56075;51.264;7.150;2023-04-25T08:47:30;9.40;99.90
20833;DHT22;56075;51.264;7.150;2023-04-25T08:50:04;9.30;99.90
20833;DHT22;56075;51.264;7.150;2023-04-25T08:52:43;9.30;99.90
20833;DHT22;56075;51.264;7.150;2023-04-25T08:55:15;9.40;99.90
20833;DHT22;56075;51.264;7.150;2023-04-25T08:57:47;9.30;99.90
20833;DHT22;56075;51.264;7.150;2023-04-25T09:00:18;9.50;99.90
20833;DHT22;56075;51.264;7.150;2023-04-25T09:02:51;9.40;99.90
20833;DHT22;56075;51.264;7.150;2023-04-25T09:05:23;9.40;99.90
20833;DHT22;56075;51.264;7.150;2023-04-25T09:07:57;9.50;99.90
20833;DHT22;56075;51.264;7.150;2023-04-25T09:10:29;9.80;99.90
20833;DHT22;56075;51.264;7.150;2023-04-25T09:13:08;9.90;99.90
20833;DHT22;56075;51.264;7.150;2023-04-25T09:15:59;9.80;99.90
20833;DHT22;56075;51.264;7.150;2023-04-25T09:19:02;10.10;99.90
20833;DHT22;56075;51.264;7.150;2023-04-25T09:21:34;10.10;99.90
20833;DHT22;56075;51.264;7.150;2023-04-25T09:24:07;10.10;99.90
20833;DHT22;56075;51.264;7.150;2023-04-25T09:26:38;10.30;99.90
20833;DHT22;56075;51.264;7.150;2023-04-25T09:29:10;10.30;99.90
20833;DHT22;56075;51.264;7.150;2023-04-25T09:31:45;10.60;99.90
20833;DHT22;56075;51.264;7.150;2023-04-25T09:34:17;10.50;99.90
20833;DHT22;56075;51.264;7.150;2023-04-25T09:36:55;10.30;99.90
20833;DHT22;56075;51.264;7.150;2023-04-25T09:39:44;10.20;99.90
20833;DHT22;56075;51.264;7.150;2023-04-25T09:42:22;10.00;99.90
20833;DHT22;56075;51.264;7.150;2023-04-25T09:44:56;10.10;99.90
20833;DHT22;56075;51.264;7.150;2023-04-25T09:47:27;10.10;99.90
20833;DHT22;56075;51.264;7.150;2023-04-25T09:50:00;10.10;99.90
20833;DHT22;56075;51.264;7.150;2023-04-25T09:52:32;10.30;99.90
20833;DHT22;56075;51.264;7.150;2023-04-25T09:55:23;10.50;99.90
20833;DHT22;56075;51.264;7.150;2023-04-25T09:57:57;10.60;99.90
20833;DHT22;56075;51.264;7.150;2023-04-25T10:00:33;10.60;99.90
20833;DHT22;56075;51.264;7.150;2023-04-25T10:03:20;10.90;99.90
20833;DHT22;56075;51.264;7.150;2023-04-25T10:06:09;10.70;99.90
20833;DHT22;56075;51.264;7.150;2023-04-25T10:08:42;10.90;99.90
20833;DHT22;56075;51.264;7.150;2023-04-25T10:11:14;10.90;99.90
20833;DHT22;56075;51.264;7.150;2023-04-25T10:13:47;10.80;99.90
20833;DHT22;56075;51.264;7.150;2023-04-25T10:16:18;12.20;99.90
20833;DHT22;56075;51.264;7.150;2023-04-25T10:18:50;11.10;99.90
20833;DHT22;56075;51.264;7.150;2023-04-25T10:21:22;12.90;99.90
20833;DHT22;56075;51.264;7.150;2023-04-25T10:23:54;13.00;99.90
20833;DHT22;56075;51.264;7.150;2023-04-25T10:26:26;11.30;99.90
20833;DHT22;56075;51.264;7.150;2023-04-25T10:29:00;11.10;99.90
20833;DHT22;56075;51.264;7.150;2023-04-25T10:31:31;10.90;99.90
20833;DHT22;56075;51.264;7.150;2023-04-25T10:34:03;10.80;99.90
20833;DHT22;56075;51.264;7.150;2023-04-25T10:36:36;10.70;99.90
20833;DHT22;56075;51.264;7.150;2023-04-25T10:39:08;10.60;99.90
20833;DHT22;56075;51.264;7.150;2023-04-25T10:41:53;10.50;99.90
20833;DHT22;56075;51.264;7.150;2023-04-25T10:44:28;10.40;99.90
20833;DHT22;56075;51.264;7.150;2023-04-25T10:47:00;10.70;99.90
20833;DHT22;56075;51.264;7.150;2023-04-25T10:49:42;10.60;99.90
20833;DHT22;56075;51.264;7.150;2023-04-25T10:54:49;10.70;99.90
20833;DHT22;56075;51.264;7.150;2023-04-25T11:00:04;10.60;99.90
20833;DHT22;56075;51.264;7.150;2023-04-25T11:05:35;10.90;99.90
20833;DHT22;56075;51.264;7.150;2023-04-25T11:08:11;11.00;99.90
20833;DHT22;56075;51.264;7.150;2023-04-25T11:10:42;11.00;99.90
20833;DHT22;56075;51.264;7.150;2023-04-25T11:13:13;11.20;99.90
20833;DHT22;56075;51.264;7.150;2023-04-25T11:15:45;11.20;99.90
20833;DHT22;56075;51.264;7.150;2023-04-25T11:18:16;11.20;99.90
20833;DHT22;56075;51.264;7.150;2023-04-25T11:20:49;11.40;99.90
20833;DHT22;56075;51.264;7.150;2023-04-25T11:23:20;12.70;99.90
20833;DHT22;56075;51.264;7.150;2023-04-25T11:25:51;13.00;99.90
20833;DHT22;56075;51.264;7.150;2023-04-25T11:28:23;11.60;99.90
20833;DHT22;56075;51.264;7.150;2023-04-25T11:30:55;12.60;99.90
20833;DHT22;56075;51.264;7.150;2023-04-25T11:33:26;11.80;99.90
20833;DHT22;56075;51.264;7.150;2023-04-25T11:36:00;12.00;99.90
20833;DHT22;56075;51.264;7.150;2023-04-25T11:38:32;11.70;99.90
20833;DHT22;56075;51.264;7.150;2023-04-25T11:41:03;11.70;99.90
20833;DHT22;56075;51.264;7.150;2023-04-25T11:43:34;11.40;99.90
20833;DHT22;56075;51.264;7.150;2023-04-25T11:46:06;11.30;99.90
20833;DHT22;56075;51.264;7.150;2023-04-25T11:48:39;11.20;99.90
20833;DHT22;56075;51.264;7.150;2023-04-25T11:51:11;10.90;99.90
20833;DHT22;56075;51.264;7.150;2023-04-25T11:53:44;10.80;99.90
20833;DHT22;56075;51.264;7.150;2023-04-25T11:56:16;10.70;99.90
20833;DHT22;56075;51.264;7.150;2023-04-25T11:58:57;10.50;99.90
20833;DHT22;56075;51.264;7.150;2023-04-25T12:01:29;10.50;99.90
20833;DHT22;56075;51.264;7.150;2023-04-25T12:06:44;10.70;99.90
20833;DHT22;56075;51.264;7.150;2023-04-25T12:09:20;10.90;99.90
20833;DHT22;56075;51.264;7.150;2023-04-25T12:11:57;10.90;99.90
20833;DHT22;56075;51.264;7.150;2023-04-25T12:14:31;11.20;99.90
20833;DHT22;56075;51.264;7.150;2023-04-25T12:17:04;12.80;99.90
20833;DHT22;56075;51.264;7.150;2023-04-25T12:19:37;11.60;99.90
20833;DHT22;56075;51.264;7.150;2023-04-25T12:22:20;11.70;99.90
20833;DHT22;56075;51.264;7.150;2023-04-25T12:24:52;12.00;99.90
20833;DHT22;56075;51.264;7.150;2023-04-25T12:27:25;11.90;99.90
20833;DHT22;56075;51.264;7.150;2023-04-25T12:29:58;11.90;99.90
20833;DHT22;56075;51.264;7.150;2023-04-25T12:32:29;13.30;99.90
20833;DHT22;56075;51.264;7.150;2023-04-25T12:35:00;12.70;99.90
20833;DHT22;56075;51.264;7.150;2023-04-25T12:37:32;12.60;99.90
20833;DHT22;56075;51.264;7.150;2023-04-25T12:40:03;12.70;99.90
20833;DHT22;56075;51.264;7.150;2023-04-25T12:42:35;12.30;99.90
20833;DHT22;56075;51.264;7.150;2023-04-25T12:45:06;11.70;99.90
20833;DHT22;56075;51.264;7.150;2023-04-25T12:47:38;11.60;99.90
20833;DHT22;56075;51.264;7.150;2023-04-25T12:50:09;11.50;99.90
20833;DHT22;56075;51.264;7.150;2023-04-25T12:52:40;11.10;99.90
20833;DHT22;56075;51.264;7.150;2023-04-25T12:55:12;10.70;99.90
20833;DHT22;56075;51.264;7.150;2023-04-25T12:57:43;10.60;99.90
20833;DHT22;56075;51.264;7.150;2023-04-25T13:00:14;10.30;99.90
20833;DHT22;56075;51.264;7.150;2023-04-25T13:02:48;10.30;99.90
20833;DHT22;56075;51.264;7.150;2023-04-25T13:07:51;9.70;99.90
20833;DHT22;56075;51.264;7.150;2023-04-25T13:10:22;9.70;99.90
20833;DHT22;56075;51.264;7.150;2023-04-25T13:12:54;9.70;99.90
20833;DHT22;56075;51.264;7.150;2023-04-25T13:17:56;9.80;99.90
20833;DHT22;56075;51.264;7.150;2023-04-25T13:20:27;10.10;99.90
20833;DHT22;56075;51.264;7.150;2023-04-25T13:22:59;11.00;99.90
20833;DHT22;56075;51.264;7.150;2023-04-25T13:25:30;10.60;99.90
20833;DHT22;56075;51.264;7.150;2023-04-25T13:28:01;11.10;99.90
20833;DHT22;56075;51.264;7.150;2023-04-25T13:30:33;11.70;99.90
20833;DHT22;56075;51.264;7.150;2023-04-25T13:33:05;12.10;99.90
20833;DHT22;56075;51.264;7.150;2023-04-25T13:35:38;12.50;99.90
20833;DHT22;56075;51.264;7.150;2023-04-25T13:38:09;13.80;99.90
20833;DHT22;56075;51.264;7.150;2023-04-25T13:40:40;13.70;99.90
20833;DHT22;56075;51.264;7.150;2023-04-25T13:43:11;13.00;99.90
20833;DHT22;56075;51.264;7.150;2023-04-25T13:45:43;14.40;99.90
20833;DHT22;56075;51.264;7.150;2023-04-25T13:48:14;14.70;99.90
20833;DHT22;56075;51.264;7.150;2023-04-25T13:50:45;13.80;99.90
20833;DHT22;56075;51.264;7.150;2023-04-25T13:53:16;13.60;99.90
20833;DHT22;56075;51.264;7.150;2023-04-25T13:55:48;13.90;99.90
20833;DHT22;56075;51.264;7.150;2023-04-25T13:58:19;14.20;99.90
20833;DHT22;56075;51.264;7.150;2023-04-25T14:00:51;12.10;99.90
20833;DHT22;56075;51.264;7.150;2023-04-25T14:03:22;11.40;99.90
20833;DHT22;56075;51.264;7.150;2023-04-25T14:05:53;9.70;99.90
20833;DHT22;56075;51.264;7.150;2023-04-25T14:08:24;9.30;99.90
20833;DHT22;56075;51.264;7.150;2023-04-25T14:10:55;8.80;99.90
20833;DHT22;56075;51.264;7.150;2023-04-25T14:15:58;8.20;99.90
20833;DHT22;56075;51.264;7.150;2023-04-25T14:18:29;8.10;99.90
20833;DHT22;56075;51.264;7.150;2023-04-25T14:21:00;8.50;99.90
20833;DHT22;56075;51.264;7.150;2023-04-25T14:23:32;8.80;99.90
20833;DHT22;56075;51.264;7.150;2023-04-25T14:26:03;8.90;99.90
20833;DHT22;56075;51.264;7.150;2023-04-25T14:28:34;9.10;99.90
20833;DHT22;56075;51.264;7.150;2023-04-25T14:31:05;9.50;99.90
20833;DHT22;56075;51.264;7.150;2023-04-25T14:33:36;9.30;99.90
20833;DHT22;56075;51.264;7.150;2023-04-25T14:36:10;10.60;99.90
20833;DHT22;56075;51.264;7.150;2023-04-25T14:38:41;10.10;99.90
20833;DHT22;56075;51.264;7.150;2023-04-25T14:41:13;10.30;99.90
20833;DHT22;56075;51.264;7.150;2023-04-25T14:43:44;11.10;99.90
20833;DHT22;56075;51.264;7.150;2023-04-25T14:46:16;10.90;99.90
20833;DHT22;56075;51.264;7.150;2023-04-25T14:48:47;11.00;99.90
20833;DHT22;56075;51.264;7.150;2023-04-25T14:51:18;11.60;99.90
20833;DHT22;56075;51.264;7.150;2023-04-25T14:53:49;11.50;99.90
20833;DHT22;56075;51.264;7.150;2023-04-25T14:56:21;11.70;99.90
20833;DHT22;56075;51.264;7.150;2023-04-25T14:58:52;12.20;99.90
20833;DHT22;56075;51.264;7.150;2023-04-25T15:01:23;12.70;99.90
20833;DHT22;56075;51.264;7.150;2023-04-25T15:03:54;14.50;99.90
20833;DHT22;56075;51.264;7.150;2023-04-25T15:06:26;14.10;99.90
20833;DHT22;56075;51.264;7.150;2023-04-25T15:08:57;14.50;99.90
20833;DHT22;56075;51.264;7.150;2023-04-25T15:11:28;13.20;99.90
20833;DHT22;56075;51.264;7.150;2023-04-25T15:14:00;14.20;99.90
20833;DHT22;56075;51.264;7.150;2023-04-25T15:16:31;13.70;99.90
20833;DHT22;56075;51.264;7.150;2023-04-25T15:19:02;12.60;99.90
20833;DHT22;56075;51.264;7.150;2023-04-25T15:21:35;12.70;99.90
20833;DHT22;56075;51.264;7.150;2023-04-25T15:24:09;13.60;99.90
20833;DHT22;56075;51.264;7.150;2023-04-25T15:26:40;12.10;99.90
20833;DHT22;56075;51.264;7.150;2023-04-25T15:29:11;12.00;99.90
20833;DHT22;56075;51.264;7.150;2023-04-25T15:31:42;11.50;99.90
20833;DHT22;56075;51.264;7.150;2023-04-25T15:34:13;12.10;99.90
20833;DHT22;56075;51.264;7.150;2023-04-25T15:36:44;11.20;99.90
20833;DHT22;56075;51.264;7.150;2023-04-25T15:39:16;11.20;99.90
20833;DHT22;56075;51.264;7.150;2023-04-25T15:41:47;11.10;99.90
20833;DHT22;56075;51.264;7.150;2023-04-25T15:44:18;11.50;99.90
20833;DHT22;56075;51.264;7.150;2023-04-25T15:46:50;11.30;99.90
20833;DHT22;56075;51.264;7.150;2023-04-25T15:49:21;11.20;99.90
20833;DHT22;56075;51.264;7.150;2023-04-25T15:51:52;11.20;99.90
20833;DHT22;56075;51.264;7.150;2023-04-25T15:54:24;12.30;99.90
20833;DHT22;56075;51.264;7.150;2023-04-25T15:56:55;11.80;99.90
20833;DHT22;56075;51.264;7.150;2023-04-25T15:59:26;11.20;99.90
20833;DHT22;56075;51.264;7.150;2023-04-25T16:01:57;11.80;99.90
20833;DHT22;56075;51.264;7.150;2023-04-25T16:04:29;12.50;99.90
20833;DHT22;56075;51.264;7.150;2023-04-25T16:07:05;14.30;99.90
20833;DHT22;56075;51.264;7.150;2023-04-25T16:09:36;13.40;99.90
20833;DHT22;56075;51.264;7.150;2023-04-25T16:12:09;13.40;99.90
20833;DHT22;56075;51.264;7.150;2023-04-25T16:14:41;13.60;99.90
20833;DHT22;56075;51.264;7.150;2023-04-25T16:17:12;13.10;99.90
20833;DHT22;56075;51.264;7.150;2023-04-25T16:19:43;13.40;99.90
20833;DHT22;56075;51.264;7.150;2023-04-25T16:22:14;13.90;99.90
20833;DHT22;56075;51.264;7.150;2023-04-25T16:24:46;13.60;99.90
20833;DHT22;56075;51.264;7.150;2023-04-25T16:27:17;14.40;99.90
20833;DHT22;56075;51.264;7.150;2023-04-25T16:29:49;13.40;99.90
20833;DHT22;56075;51.264;7.150;2023-04-25T16:32:21;13.50;99.90
20833;DHT22;56075;51.264;7.150;2023-04-25T16:34:52;12.10;99.90
20833;DHT22;56075;51.264;7.150;2023-04-25T16:37:23;12.10;99.90
20833;DHT22;56075;51.264;7.150;2023-04-25T16:39:54;12.00;99.90
20833;DHT22;56075;51.264;7.150;2023-04-25T16:42:25;12.90;99.90
20833;DHT22;56075;51.264;7.150;2023-04-25T16:44:57;13.10;99.90
20833;DHT22;56075;51.264;7.150;2023-04-25T16:47:28;13.00;99.90
20833;DHT22;56075;51.264;7.150;2023-04-25T16:49:59;11.60;99.90
20833;DHT22;56075;51.264;7.150;2023-04-25T16:52:33;11.30;99.90
20833;DHT22;56075;51.264;7.150;2023-04-25T16:57:37;10.80;99.90
20833;DHT22;56075;51.264;7.150;2023-04-25T17:02:40;10.90;99.90
20833;DHT22;56075;51.264;7.150;2023-04-25T17:05:11;10.90;99.90
20833;DHT22;56075;51.264;7.150;2023-04-25T17:07:43;10.80;99.90
20833;DHT22;56075;51.264;7.150;2023-04-25T17:12:46;10.50;99.90
20833;DHT22;56075;51.264;7.150;2023-04-25T17:15:17;10.50;99.90
20833;DHT22;56075;51.264;7.150;2023-04-25T17:17:48;10.40;99.90
20833;DHT22;56075;51.264;7.150;2023-04-25T17:20:20;10.50;99.90
20833;DHT22;56075;51.264;7.150;2023-04-25T17:22:52;10.20;99.90
20833;DHT22;56075;51.264;7.150;2023-04-25T17:25:24;10.00;99.90
20833;DHT22;56075;51.264;7.150;2023-04-25T17:27:55;10.10;99.90
20833;DHT22;56075;51.264;7.150;2023-04-25T17:30:26;10.00;99.90
20833;DHT22;56075;51.264;7.150;2023-04-25T17:32:58;9.90;99.90
20833;DHT22;56075;51.264;7.150;2023-04-25T17:35:29;9.90;99.90
20833;DHT22;56075;51.264;7.150;2023-04-25T17:38:00;9.80;99.90
20833;DHT22;56075;51.264;7.150;2023-04-25T17:40:31;9.90;99.90
20833;DHT22;56075;51.264;7.150;2023-04-25T17:43:02;9.90;99.90
20833;DHT22;56075;51.264;7.150;2023-04-25T17:45:33;9.60;99.90
20833;DHT22;56075;51.264;7.150;2023-04-25T17:50:37;9.60;99.90
20833;DHT22;56075;51.264;7.150;2023-04-25T17:53:08;9.80;99.90
20833;DHT22;56075;51.264;7.150;2023-04-25T17:55:40;9.80;99.90
20833;DHT22;56075;51.264;7.150;2023-04-25T17:58:13;9.40;99.90
20833;DHT22;56075;51.264;7.150;2023-04-25T18:00:44;9.40;99.90
20833;DHT22;56075;51.264;7.150;2023-04-25T18:03:16;9.50;99.90
20833;DHT22;56075;51.264;7.150;2023-04-25T18:05:47;9.40;99.90
20833;DHT22;56075;51.264;7.150;2023-04-25T18:08:18;9.30;99.90
20833;DHT22;56075;51.264;7.150;2023-04-25T18:13:24;9.40;99.90
20833;DHT22;56075;51.264;7.150;2023-04-25T18:26:07;9.20;99.90
20833;DHT22;56075;51.264;7.150;2023-04-25T18:28:38;9.20;99.90
20833;DHT22;56075;51.264;7.150;2023-04-25T18:36:12;9.00;99.90
20833;DHT22;56075;51.264;7.150;2023-04-25T18:46:31;9.00;99.90
20833;DHT22;56075;51.264;7.150;2023-04-25T18:51:34;9.00;99.90
20833;DHT22;56075;51.264;7.150;2023-04-25T18:54:05;8.80;99.90
20833;DHT22;56075;51.264;7.150;2023-04-25T18:59:12;8.90;99.90
20833;DHT22;56075;51.264;7.150;2023-04-25T19:01:45;8.90;99.90
20833;DHT22;56075;51.264;7.150;2023-04-25T19:04:16;8.80;99.90
20833;DHT22;56075;51.264;7.150;2023-04-25T19:09:20;8.80;99.90
20833;DHT22;56075;51.264;7.150;2023-04-25T19:14:23;8.70;99.90
20833;DHT22;56075;51.264;7.150;2023-04-25T19:16:56;8.40;99.90
20833;DHT22;56075;51.264;7.150;2023-04-25T19:22:00;8.40;99.90
20833;DHT22;56075;51.264;7.150;2023-04-25T19:24:31;8.50;99.90
20833;DHT22;56075;51.264;7.150;2023-04-25T19:29:34;8.30;99.90
20833;DHT22;56075;51.264;7.150;2023-04-25T19:34:37;8.30;99.90
20833;DHT22;56075;51.264;7.150;2023-04-25T19:37:08;8.00;99.90
20833;DHT22;56075;51.264;7.150;2023-04-25T19:39:39;8.00;99.90
20833;DHT22;56075;51.264;7.150;2023-04-25T19:54:48;7.80;99.90
20833;DHT22;56075;51.264;7.150;2023-04-25T20:02:23;7.60;99.90
20833;DHT22;56075;51.264;7.150;2023-04-25T20:12:32;7.30;99.90
20833;DHT22;56075;51.264;7.150;2023-04-25T20:30:15;7.10;99.90
20833;DHT22;56075;51.264;7.150;2023-04-25T20:35:17;6.70;99.90
20833;DHT22;56075;51.264;7.150;2023-04-25T20:40:21;6.80;99.90
20833;DHT22;56075;51.264;7.150;2023-04-25T20:50:34;6.70;99.90
20833;DHT22;56075;51.264;7.150;2023-04-25T21:03:16;6.50;99.90
20833;DHT22;56075;51.264;7.150;2023-04-25T21:10:51;6.50;99.90
20833;DHT22;56075;51.264;7.150;2023-04-25T21:15:58;6.20;99.90
20833;DHT22;56075;51.264;7.150;2023-04-25T21:26:05;6.20;99.90
20833;DHT22;56075;51.264;7.150;2023-04-25T21:33:39;6.30;99.90
20833;DHT22;56075;51.264;7.150;2023-04-25T21:38:42;5.90;99.90
20833;DHT22;56075;51.264;7.150;2023-04-25T21:46:16;5.60;99.90
20833;DHT22;56075;51.264;7.150;2023-04-25T21:53:51;5.60;99.90
20833;DHT22;56075;51.264;7.150;2023-04-25T21:58:53;5.60;99.90
20833;DHT22;56075;51.264;7.150;2023-04-25T22:03:57;5.60;99.90
20833;DHT22;56075;51.264;7.150;2023-04-25T22:06:28;5.30;99.90
20833;DHT22;56075;51.264;7.150;2023-04-25T22:08:59;5.50;99.90
20833;DHT22;56075;51.264;7.150;2023-04-25T22:26:43;5.20;99.90
20833;DHT22;56075;51.264;7.150;2023-04-25T22:34:18;4.90;99.90
20833;DHT22;56075;51.264;7.150;2023-04-25T22:36:49;4.70;99.90
20833;DHT22;56075;51.264;7.150;2023-04-25T22:49:28;4.60;99.90
20833;DHT22;56075;51.264;7.150;2023-04-25T22:54:33;4.70;99.90
20833;DHT22;56075;51.264;7.150;2023-04-25T22:57:07;4.70;99.90
20833;DHT22;56075;51.264;7.150;2023-04-25T23:07:14;4.70;99.90
20833;DHT22;56075;51.264;7.150;2023-04-25T23:19:53;4.60;99.90
20833;DHT22;56075;51.264;7.150;2023-04-25T23:24:55;4.50;99.90
20833;DHT22;56075;51.264;7.150;2023-04-25T23:32:29;4.50;99.90
20833;DHT22;56075;51.264;7.150;2023-04-25T23:35:02;4.40;99.90
20833;DHT22;56075;51.264;7.150;2023-04-25T23:40:08;4.10;99.90
20833;DHT22;56075;51.264;7.150;2023-04-25T23:42:42;4.30;99.90
20833;DHT22;56075;51.264;7.150;2023-04-25T23:50:17;4.10;99.90
20833;DHT22;56075;51.264;7.150;2023-04-25T23:52:49;4.00;99.90
